createdAt,value
2018-10-05T00:00:07.188Z,3.87
2018-10-05T00:02:37.197Z,4.30
2018-10-05T00:05:07.575Z,4.40
2018-10-05T00:07:36.797Z,4.23
2018-10-05T00:10:06.862Z,5.73
2018-10-05T00:12:37.253Z,4.17
2018-10-05T00:15:07.421Z,4.80
2018-10-05T00:17:36.861Z,4.50
2018-10-05T00:20:08.001Z,4.70
2018-10-05T00:22:37.192Z,4.60
2018-10-05T00:25:07.304Z,5.87
2018-10-05T00:27:37.342Z,5.10
2018-10-05T00:30:06.802Z,5.07
2018-10-05T00:32:37.347Z,5.20
2018-10-05T00:35:07.289Z,4.13
2018-10-05T00:37:37.228Z,5.10
2018-10-05T00:40:07.117Z,4.90
2018-10-05T00:42:38.205Z,4.70
2018-10-05T00:45:08.431Z,5.13
2018-10-05T00:47:38.657Z,4.87
2018-10-05T00:50:09.056Z,5.20
2018-10-05T00:52:39.237Z,5.33
2018-10-05T00:55:10.094Z,4.80
2018-10-05T00:57:39.291Z,5.23
2018-10-05T01:00:09.179Z,5.77
2018-10-05T01:02:38.977Z,5.13
2018-10-05T01:05:09.709Z,4.90
2018-10-05T01:07:39.041Z,5.40
2018-10-05T01:10:09.361Z,5.10
2018-10-05T01:12:38.896Z,5.63
2018-10-05T01:15:09.262Z,5.00
2018-10-05T01:17:39.312Z,5.90
2018-10-05T01:20:10.083Z,6.33
2018-10-05T01:22:39.321Z,7.30
2018-10-05T01:25:10.081Z,5.87
2018-10-05T01:27:38.966Z,5.77
2018-10-05T01:30:11.851Z,5.97
2018-10-05T01:32:42.701Z,6.33
2018-10-05T01:35:12.433Z,6.10
2018-10-05T01:37:41.030Z,6.27
2018-10-05T01:40:10.712Z,5.40
2018-10-05T01:42:40.105Z,6.23
2018-10-05T01:45:09.380Z,5.70
2018-10-05T01:47:40.101Z,5.93
2018-10-05T01:50:09.318Z,6.03
2018-10-05T01:52:40.057Z,6.47
2018-10-05T01:55:09.353Z,5.40
2018-10-05T01:57:40.144Z,6.23
2018-10-05T02:00:09.577Z,6.03
2018-10-05T02:02:38.841Z,6.70
2018-10-05T02:05:08.309Z,6.27
2018-10-05T02:07:37.268Z,5.93
2018-10-05T02:10:08.151Z,5.80
2018-10-05T02:12:37.226Z,5.73
2018-10-05T02:15:07.309Z,6.03
2018-10-05T02:17:37.164Z,5.07
2018-10-05T02:20:06.737Z,6.63
2018-10-05T02:22:35.742Z,7.10
2018-10-05T02:25:04.590Z,6.80
2018-10-05T02:27:33.684Z,4.83
2018-10-05T02:30:02.064Z,5.40
2018-10-05T02:32:31.195Z,6.10
2018-10-05T02:35:00.381Z,6.40
2018-10-05T02:37:28.729Z,6.07
2018-10-05T02:39:57.968Z,7.13
2018-10-05T02:42:26.303Z,6.40
2018-10-05T02:44:54.653Z,6.73
2018-10-05T02:47:23.013Z,5.73
2018-10-05T02:49:51.344Z,5.93
2018-10-05T02:52:20.574Z,6.63
2018-10-05T02:54:49.811Z,6.33
2018-10-05T02:57:19.200Z,5.90
2018-10-05T02:59:48.420Z,6.37
2018-10-05T03:02:32.257Z,7.20
2018-10-05T03:05:00.585Z,6.20
2018-10-05T03:07:30.035Z,6.80
2018-10-05T03:09:59.478Z,6.30
2018-10-05T03:12:28.081Z,6.97
2018-10-05T03:14:56.417Z,6.27
2018-10-05T03:17:24.777Z,7.10
2018-10-05T03:19:53.308Z,7.63
2018-10-05T03:22:21.607Z,7.13
2018-10-05T03:24:49.948Z,6.90
2018-10-05T03:27:18.277Z,6.17
2018-10-05T03:29:46.674Z,6.30
2018-10-05T03:32:15.262Z,6.57
2018-10-05T03:34:43.604Z,6.40
2018-10-05T03:37:11.955Z,6.87
2018-10-05T03:39:40.305Z,6.60
2018-10-05T03:42:10.005Z,5.83
2018-10-05T03:44:39.457Z,6.87
2018-10-05T03:47:08.762Z,7.23
2018-10-05T03:49:38.276Z,6.67
2018-10-05T03:52:07.838Z,6.20
2018-10-05T03:54:37.165Z,6.77
2018-10-05T03:57:07.201Z,6.30
2018-10-05T03:59:36.642Z,7.13
2018-10-05T04:02:06.081Z,6.63
2018-10-05T04:04:36.941Z,6.10
2018-10-05T04:07:07.283Z,6.57
2018-10-05T04:09:36.664Z,7.30
2018-10-05T04:12:06.914Z,6.80
2018-10-05T04:14:37.109Z,6.23
2018-10-05T04:17:07.619Z,7.30
2018-10-05T04:19:37.078Z,6.07
2018-10-05T04:22:07.205Z,5.27
2018-10-05T04:24:38.285Z,5.73
2018-10-05T04:27:07.418Z,7.30
2018-10-05T04:29:37.289Z,6.80
2018-10-05T04:32:07.511Z,6.80
2018-10-05T04:34:36.879Z,7.63
2018-10-05T04:37:07.662Z,6.00
2018-10-05T04:39:37.188Z,6.57
2018-10-05T04:42:06.811Z,5.87
2018-10-05T04:44:38.741Z,6.17
2018-10-05T04:47:07.437Z,5.53
2018-10-05T04:49:37.915Z,5.27
2018-10-05T04:52:07.803Z,5.80
2018-10-05T04:54:39.021Z,5.97
2018-10-05T04:57:08.349Z,5.20
2018-10-05T04:59:38.656Z,6.40
2018-10-05T05:02:08.937Z,6.93
2018-10-05T05:04:38.152Z,5.77
2018-10-05T05:07:07.646Z,4.93
2018-10-05T05:09:38.112Z,5.60
2018-10-05T05:12:08.324Z,5.60
2018-10-05T05:14:37.284Z,5.30
2018-10-05T05:17:08.713Z,6.40
2018-10-05T05:19:38.060Z,5.40
2018-10-05T05:22:07.169Z,5.60
2018-10-05T05:24:37.079Z,5.87
2018-10-05T05:27:08.125Z,5.67
2018-10-05T05:29:39.091Z,4.93
2018-10-05T05:32:08.908Z,4.13
2018-10-05T05:34:38.118Z,4.47
2018-10-05T05:37:08.083Z,4.80
2018-10-05T05:39:38.088Z,5.10
2018-10-05T05:42:08.457Z,5.07
2018-10-05T05:44:36.793Z,5.30
2018-10-05T05:47:09.129Z,5.00
2018-10-05T05:49:38.613Z,5.73
2018-10-05T05:52:08.660Z,4.87
2018-10-05T05:54:39.314Z,4.60
2018-10-05T05:57:10.089Z,5.70
2018-10-05T05:59:39.344Z,5.43
2018-10-05T06:02:10.168Z,5.00
2018-10-05T06:04:40.160Z,6.70
2018-10-05T06:07:09.689Z,5.57
2018-10-05T06:09:38.932Z,6.37
2018-10-05T06:12:08.209Z,5.20
2018-10-05T06:14:38.485Z,5.37
2018-10-05T06:17:08.802Z,5.97
2018-10-05T06:19:38.404Z,6.37
2018-10-05T06:22:06.827Z,6.67
2018-10-05T06:24:36.143Z,5.63
2018-10-05T06:27:04.909Z,6.10
2018-10-05T06:29:33.437Z,6.10
2018-10-05T06:32:01.776Z,7.23
2018-10-05T06:34:31.040Z,5.20
2018-10-05T06:37:00.271Z,5.33
2018-10-05T06:39:28.606Z,5.47
2018-10-05T06:41:57.860Z,5.97
2018-10-05T06:44:27.101Z,5.30
2018-10-05T06:46:56.454Z,6.10
2018-10-05T06:49:24.888Z,5.40
2018-10-05T06:51:53.233Z,5.33
2018-10-05T06:54:22.628Z,5.63
2018-10-05T06:56:51.058Z,5.73
2018-10-05T06:59:20.309Z,5.53
2018-10-05T07:01:48.680Z,5.70
2018-10-05T07:04:17.053Z,5.53
2018-10-05T07:06:46.409Z,4.90
2018-10-05T07:09:14.789Z,5.93
2018-10-05T07:11:44.309Z,4.90
2018-10-05T07:14:13.526Z,5.30
2018-10-05T07:16:42.793Z,5.20
2018-10-05T07:19:11.646Z,5.33
2018-10-05T07:21:40.921Z,4.60
2018-10-05T07:24:10.615Z,5.70
2018-10-05T07:26:40.015Z,4.17
2018-10-05T07:29:09.748Z,5.03
2018-10-05T07:31:39.484Z,5.10
2018-10-05T07:34:09.084Z,4.90
2018-10-05T07:36:39.245Z,5.30
2018-10-05T07:39:10.900Z,5.13
2018-10-05T07:41:40.119Z,4.17
2018-10-05T07:44:09.357Z,4.87
2018-10-05T07:46:38.953Z,4.60
2018-10-05T07:49:09.345Z,4.20
2018-10-05T07:51:38.477Z,4.77
2018-10-05T07:54:08.997Z,5.00
2018-10-05T07:56:38.449Z,5.00
2018-10-05T07:59:08.193Z,4.23
2018-10-05T08:01:37.341Z,5.40
2018-10-05T08:04:07.500Z,3.80
2018-10-05T08:06:37.558Z,5.13
2018-10-05T08:09:07.884Z,3.97
2018-10-05T08:11:37.855Z,5.30
2018-10-05T08:14:08.031Z,4.40
2018-10-05T08:16:38.689Z,3.77
2018-10-05T08:19:08.819Z,4.17
2018-10-05T08:21:39.174Z,5.43
2018-10-05T08:24:08.288Z,3.83
2018-10-05T08:26:38.086Z,3.90
2018-10-05T08:29:07.809Z,4.27
2018-10-05T08:31:37.809Z,4.20
2018-10-05T08:34:07.960Z,4.00
2018-10-05T08:36:38.415Z,4.30
2018-10-05T08:39:09.629Z,4.10
2018-10-05T08:41:38.876Z,3.37
2018-10-05T08:44:08.674Z,5.23
2018-10-05T08:46:38.282Z,5.10
2018-10-05T08:49:07.733Z,5.37
2018-10-05T08:51:37.710Z,15.20
2018-10-05T08:54:06.825Z,13.73
2018-10-05T08:56:37.233Z,6.50
2018-10-05T08:59:07.173Z,3.70
2018-10-05T09:01:38.360Z,3.83
2018-10-05T09:04:08.577Z,3.40
2018-10-05T09:06:38.366Z,3.37
2018-10-05T09:09:09.358Z,3.77
2018-10-05T09:11:38.606Z,3.57
2018-10-05T09:14:09.309Z,4.40
2018-10-05T09:16:38.665Z,3.30
2018-10-05T09:19:07.750Z,4.00
2018-10-05T09:21:36.722Z,4.20
2018-10-05T09:24:05.873Z,3.40
2018-10-05T09:26:35.063Z,3.30
2018-10-05T09:29:03.485Z,3.63
2018-10-05T09:31:31.832Z,3.87
2018-10-05T09:34:00.173Z,3.47
2018-10-05T09:36:28.541Z,3.23
2018-10-05T09:38:56.898Z,4.10
2018-10-05T09:41:25.325Z,3.60
2018-10-05T09:43:53.711Z,3.00
2018-10-05T09:46:22.052Z,3.00
2018-10-05T09:48:50.384Z,2.90
2018-10-05T09:51:18.728Z,4.90
2018-10-05T09:53:47.068Z,4.77
2018-10-05T09:56:15.417Z,3.07
2018-10-05T09:58:43.751Z,3.50
2018-10-05T10:01:18.453Z,3.43
2018-10-05T10:03:46.819Z,3.33
2018-10-05T10:06:15.160Z,4.93
2018-10-05T10:08:43.489Z,5.60
2018-10-05T10:11:11.867Z,3.60
2018-10-05T10:13:40.243Z,3.50
2018-10-05T10:16:09.445Z,2.83
2018-10-05T10:18:38.306Z,2.80
2018-10-05T10:21:07.706Z,3.90
2018-10-05T10:23:37.201Z,3.47
2018-10-05T10:26:07.602Z,4.53
2018-10-05T10:28:37.788Z,3.37
2018-10-05T10:31:13.490Z,3.20
2018-10-05T10:33:41.898Z,3.30
2018-10-05T10:36:10.209Z,5.13
2018-10-05T10:38:39.890Z,3.77
2018-10-05T10:41:09.241Z,3.20
2018-10-05T10:43:38.757Z,4.73
2018-10-05T10:46:08.006Z,3.53
2018-10-05T10:48:38.664Z,2.60
2018-10-05T10:51:08.677Z,3.23
2018-10-05T10:53:38.709Z,3.13
2018-10-05T10:56:08.067Z,3.13
2018-10-05T10:58:38.504Z,2.90
2018-10-05T11:01:08.215Z,3.10
2018-10-05T11:03:37.377Z,2.93
2018-10-05T11:06:08.012Z,3.40
2018-10-05T11:08:38.377Z,3.17
2018-10-05T11:11:08.739Z,3.00
2018-10-05T11:13:38.264Z,3.07
2018-10-05T11:16:08.821Z,3.00
2018-10-05T11:18:38.841Z,3.37
2018-10-05T11:21:09.022Z,3.80
2018-10-05T11:23:39.404Z,3.57
2018-10-05T11:26:10.142Z,3.73
2018-10-05T11:28:39.537Z,3.37
2018-10-05T11:31:08.420Z,3.53
2018-10-05T11:33:39.106Z,4.17
2018-10-05T11:36:10.294Z,3.27
2018-10-05T11:38:40.266Z,3.00
2018-10-05T11:41:10.948Z,3.13
2018-10-05T11:43:40.197Z,2.97
2018-10-05T11:46:09.489Z,3.60
2018-10-05T11:48:38.830Z,3.63
2018-10-05T11:51:08.960Z,3.30
2018-10-05T11:53:39.549Z,3.33
2018-10-05T11:56:08.814Z,3.40
2018-10-05T11:58:38.677Z,3.10
2018-10-05T12:01:08.717Z,3.20
2018-10-05T12:03:38.948Z,3.63
2018-10-05T12:06:09.249Z,2.77
2018-10-05T12:08:39.869Z,2.83
2018-10-05T12:11:09.222Z,2.90
2018-10-05T12:13:39.856Z,3.70
2018-10-05T12:16:09.173Z,3.43
2018-10-05T12:18:39.084Z,2.57
2018-10-05T12:21:08.955Z,2.70
2018-10-05T12:23:39.340Z,3.00
2018-10-05T12:26:10.017Z,3.50
2018-10-05T12:28:39.333Z,2.40
2018-10-05T12:31:09.973Z,2.90
2018-10-05T12:33:39.209Z,2.70
2018-10-05T12:36:08.882Z,3.40
2018-10-05T12:38:39.249Z,2.63
2018-10-05T12:41:09.979Z,9.33
2018-10-05T12:43:39.392Z,4.33
2018-10-05T12:46:10.078Z,3.30
2018-10-05T12:48:39.441Z,2.40
2018-10-05T12:51:10.153Z,3.07
2018-10-05T12:53:40.700Z,2.80
2018-10-05T12:56:10.059Z,2.70
2018-10-05T12:58:39.702Z,3.10
2018-10-05T13:01:08.933Z,3.70
2018-10-05T13:03:39.325Z,3.03
2018-10-05T13:06:10.106Z,2.73
2018-10-05T13:08:38.981Z,2.80
2018-10-05T13:11:08.476Z,2.27
2018-10-05T13:13:38.539Z,2.60
2018-10-05T13:16:08.385Z,2.50
2018-10-05T13:18:37.953Z,2.70
2018-10-05T13:21:07.149Z,3.10
2018-10-05T13:23:36.851Z,3.17
2018-10-05T13:26:06.802Z,2.90
2018-10-05T13:28:35.147Z,3.07
2018-10-05T13:31:04.221Z,3.10
2018-10-05T13:33:32.566Z,2.50
2018-10-05T13:36:02.874Z,2.70
2018-10-05T13:38:32.957Z,3.17
2018-10-05T13:41:02.625Z,2.80
2018-10-05T13:43:31.376Z,3.00
2018-10-05T13:45:59.778Z,3.20
2018-10-05T13:48:29.111Z,2.77
2018-10-05T13:50:57.447Z,2.70
2018-10-05T13:53:25.798Z,2.70
2018-10-05T13:55:54.133Z,3.97
2018-10-05T13:58:22.521Z,2.80
2018-10-05T14:00:51.725Z,2.53
2018-10-05T14:03:21.097Z,2.50
2018-10-05T14:05:50.313Z,3.03
2018-10-05T14:08:19.623Z,2.90
2018-10-05T14:10:48.850Z,3.10
2018-10-05T14:13:18.197Z,2.87
2018-10-05T14:15:47.538Z,2.97
2018-10-05T14:18:16.744Z,2.67
2018-10-05T14:20:46.025Z,2.60
2018-10-05T14:23:15.231Z,2.60
2018-10-05T14:25:44.485Z,3.50
2018-10-05T14:28:13.851Z,2.87
2018-10-05T14:30:43.059Z,3.07
2018-10-05T14:33:12.388Z,3.20
2018-10-05T14:35:41.781Z,3.20
2018-10-05T14:38:11.029Z,3.60
2018-10-05T14:40:39.400Z,3.23
2018-10-05T14:43:08.834Z,2.83
2018-10-05T14:45:38.999Z,2.80
2018-10-05T14:48:09.615Z,3.87
2018-10-05T14:50:38.841Z,3.20
2018-10-05T14:53:09.352Z,3.43
2018-10-05T14:55:40.107Z,3.00
2018-10-05T14:58:08.736Z,2.83
2018-10-05T15:00:38.905Z,2.80
2018-10-05T15:03:09.624Z,3.20
2018-10-05T15:05:38.881Z,3.60
2018-10-05T15:08:08.780Z,2.53
2018-10-05T15:10:38.781Z,2.70
2018-10-05T15:13:09.129Z,3.23
2018-10-05T15:15:38.801Z,3.30
2018-10-05T15:18:09.061Z,3.40
2018-10-05T15:20:39.384Z,3.10
2018-10-05T15:23:10.196Z,2.43
2018-10-05T15:25:39.563Z,3.23
2018-10-05T15:28:08.800Z,3.23
2018-10-05T15:30:38.802Z,3.50
2018-10-05T15:33:08.753Z,3.13
2018-10-05T15:35:39.409Z,3.00
2018-10-05T15:38:10.201Z,3.50
2018-10-05T15:40:39.463Z,3.67
2018-10-05T15:43:10.236Z,3.37
2018-10-05T15:45:40.457Z,3.70
2018-10-05T15:48:09.824Z,3.30
2018-10-05T15:50:39.247Z,3.13
2018-10-05T15:53:10.168Z,2.77
2018-10-05T15:55:40.638Z,3.70
2018-10-05T15:58:10.022Z,3.30
2018-10-05T16:00:39.274Z,4.03
2018-10-05T16:03:10.140Z,3.00
2018-10-05T16:05:39.652Z,2.90
2018-10-05T16:08:08.935Z,3.47
2018-10-05T16:10:38.220Z,3.03
2018-10-05T16:13:08.058Z,3.97
2018-10-05T16:15:37.762Z,3.40
2018-10-05T16:18:08.176Z,4.33
2018-10-05T16:20:37.135Z,3.50
2018-10-05T16:23:07.418Z,4.40
2018-10-05T16:25:36.802Z,5.83
2018-10-05T16:28:06.673Z,4.00
2018-10-05T16:30:37.989Z,3.90
2018-10-05T16:33:07.205Z,4.90
2018-10-05T16:35:37.468Z,4.60
2018-10-05T16:38:06.851Z,4.77
2018-10-05T16:40:37.185Z,4.10
2018-10-05T16:43:07.160Z,4.27
2018-10-05T16:45:38.031Z,4.40
2018-10-05T16:48:07.761Z,4.57
2018-10-05T16:50:38.345Z,4.67
2018-10-05T16:53:08.241Z,4.53
2018-10-05T16:55:38.036Z,4.77
2018-10-05T16:58:08.035Z,4.80
2018-10-05T17:00:38.197Z,4.73
2018-10-05T17:03:08.244Z,3.97
2018-10-05T17:05:38.844Z,4.90
2018-10-05T17:08:08.717Z,4.43
2018-10-05T17:10:38.398Z,4.30
2018-10-05T17:13:08.765Z,3.53
2018-10-05T17:15:38.318Z,3.93
2018-10-05T17:18:08.054Z,4.03
2018-10-05T17:20:38.369Z,5.80
2018-10-05T17:23:08.321Z,6.40
2018-10-05T17:25:38.551Z,7.40
2018-10-05T17:28:08.333Z,7.90
2018-10-05T17:30:39.620Z,8.80
2018-10-05T17:33:08.977Z,9.40
2018-10-05T17:35:39.265Z,10.00
2018-10-05T17:38:10.161Z,13.10
2018-10-05T17:40:40.409Z,9.07
2018-10-05T17:43:08.753Z,9.87
2018-10-05T17:45:38.757Z,9.70
2018-10-05T17:48:09.498Z,7.87
2018-10-05T17:50:39.169Z,8.60
2018-10-05T17:53:08.122Z,7.83
2018-10-05T17:55:38.659Z,8.90
2018-10-05T17:58:07.985Z,8.90
2018-10-05T18:00:38.112Z,9.10
2018-10-05T18:03:08.169Z,9.87
2018-10-05T18:05:38.857Z,10.63
2018-10-05T18:08:08.757Z,9.97
2018-10-05T18:10:38.125Z,10.70
2018-10-05T18:13:08.638Z,10.23
2018-10-05T18:15:37.446Z,10.50
2018-10-05T18:18:07.914Z,11.03
2018-10-05T18:20:38.324Z,10.70
2018-10-05T18:23:08.282Z,11.93
2018-10-05T18:25:39.009Z,9.23
2018-10-05T18:28:08.657Z,12.40
2018-10-05T18:30:39.461Z,11.10
2018-10-05T18:33:08.347Z,13.27
2018-10-05T18:35:39.133Z,13.33
2018-10-05T18:38:09.469Z,11.40
2018-10-05T18:40:38.429Z,11.83
2018-10-05T18:43:06.951Z,12.10
2018-10-05T18:45:38.052Z,12.00
2018-10-05T18:48:08.961Z,11.83
2018-10-05T18:50:38.097Z,12.33
2018-10-05T18:53:08.280Z,13.40
2018-10-05T18:55:38.073Z,13.27
2018-10-05T18:58:08.669Z,14.00
2018-10-05T19:00:38.905Z,13.97
2018-10-05T19:03:10.159Z,13.43
2018-10-05T19:05:39.523Z,13.10
2018-10-05T19:08:08.853Z,12.53
2018-10-05T19:10:38.377Z,11.97
2018-10-05T19:13:08.602Z,13.80
2018-10-05T19:15:38.017Z,10.90
2018-10-05T19:18:08.462Z,11.73
2018-10-05T19:20:37.876Z,10.63
2018-10-05T19:23:08.739Z,11.27
2018-10-05T19:25:38.138Z,11.83
2018-10-05T19:28:08.658Z,10.30
2018-10-05T19:30:38.455Z,11.67
2018-10-05T19:33:08.673Z,11.60
2018-10-05T19:35:39.025Z,10.87
2018-10-05T19:38:09.662Z,11.47
2018-10-05T19:40:39.071Z,12.30
2018-10-05T19:43:10.200Z,14.13
2018-10-05T19:45:39.619Z,13.30
2018-10-05T19:48:09.446Z,12.20
2018-10-05T19:50:38.465Z,12.60
2018-10-05T19:53:09.381Z,11.67
2018-10-05T19:55:39.072Z,10.87
2018-10-05T19:58:08.676Z,9.27
2018-10-05T20:00:37.792Z,9.27
2018-10-05T20:03:08.456Z,9.53
2018-10-05T20:05:38.436Z,9.20
2018-10-05T20:08:08.909Z,9.00
2018-10-05T20:10:38.870Z,8.10
2018-10-05T20:13:10.021Z,8.77
2018-10-05T20:15:39.269Z,9.70
2018-10-05T20:18:09.017Z,9.77
2018-10-05T20:20:38.933Z,10.20
2018-10-05T20:23:10.001Z,9.27
2018-10-05T20:25:39.101Z,9.70
2018-10-05T20:28:08.762Z,9.10
2018-10-05T20:30:38.381Z,10.40
2018-10-05T20:33:08.834Z,8.60
2018-10-05T20:35:38.734Z,9.27
2018-10-05T20:38:09.998Z,10.00
2018-10-05T20:40:38.846Z,9.17
2018-10-05T20:43:08.821Z,9.67
2018-10-05T20:45:38.941Z,10.40
2018-10-05T20:48:08.474Z,10.43
2018-10-05T20:50:38.306Z,10.47
2018-10-05T20:53:07.841Z,10.33
2018-10-05T20:55:38.349Z,10.07
2018-10-05T20:58:08.109Z,11.10
2018-10-05T21:00:38.625Z,10.87
2018-10-05T21:03:08.021Z,9.57
2018-10-05T21:05:38.250Z,9.33
2018-10-05T21:08:08.505Z,8.57
2018-10-05T21:10:38.835Z,9.27
2018-10-05T21:13:08.621Z,7.93
2018-10-05T21:15:38.085Z,9.07
2018-10-05T21:18:08.422Z,7.43
2018-10-05T21:20:38.993Z,7.70
2018-10-05T21:23:08.708Z,9.40
2018-10-05T21:25:39.013Z,10.63
2018-10-05T21:28:08.729Z,8.80
2018-10-05T21:30:38.331Z,8.43
2018-10-05T21:33:08.194Z,8.00
2018-10-05T21:35:39.042Z,8.37
2018-10-05T21:38:08.556Z,8.30
2018-10-05T21:40:39.105Z,8.90
2018-10-05T21:43:09.039Z,8.40
2018-10-05T21:45:38.775Z,8.90
2018-10-05T21:48:08.187Z,8.07
2018-10-05T21:50:37.224Z,8.30
2018-10-05T21:53:07.906Z,9.10
2018-10-05T21:55:37.968Z,8.53
2018-10-05T21:58:08.182Z,6.83
2018-10-05T22:00:41.505Z,7.37
2018-10-05T22:03:10.657Z,7.17
2018-10-05T22:05:39.165Z,8.50
2018-10-05T22:08:08.785Z,6.43
2018-10-05T22:10:38.222Z,6.83
2018-10-05T22:13:08.454Z,7.63
2018-10-05T22:15:39.390Z,7.67
2018-10-05T22:18:08.681Z,7.07
2018-10-05T22:20:38.081Z,6.33
2018-10-05T22:23:08.326Z,6.53
2018-10-05T22:25:38.773Z,6.70
2018-10-05T22:28:08.068Z,6.50
2018-10-05T22:30:39.227Z,7.00
2018-10-05T22:33:09.231Z,7.80
2018-10-05T22:35:38.728Z,7.23
2018-10-05T22:38:08.133Z,8.27
2018-10-05T22:40:38.393Z,6.77
2018-10-05T22:43:06.784Z,7.20
2018-10-05T22:45:36.549Z,6.47
2018-10-05T22:48:06.168Z,7.80
2018-10-05T22:50:37.129Z,7.33
2018-10-05T22:53:08.745Z,7.50
2018-10-05T22:55:38.042Z,6.33
2018-10-05T22:58:08.077Z,6.50
2018-10-05T23:00:38.173Z,6.30
2018-10-05T23:03:08.890Z,7.90
2018-10-05T23:05:39.629Z,6.90
2018-10-05T23:08:08.856Z,8.17
2018-10-05T23:10:38.165Z,7.53
2018-10-05T23:13:09.338Z,7.50
2018-10-05T23:15:38.411Z,7.30
2018-10-05T23:18:08.125Z,7.43
2018-10-05T23:20:37.720Z,7.53
2018-10-05T23:23:06.917Z,6.60
2018-10-05T23:25:37.334Z,7.10
2018-10-05T23:28:07.441Z,6.40
2018-10-05T23:30:37.397Z,8.50
2018-10-05T23:33:07.461Z,7.07
2018-10-05T23:35:36.819Z,7.23
2018-10-05T23:38:05.241Z,7.53
2018-10-05T23:40:34.706Z,7.20
2018-10-05T23:43:04.052Z,7.23
2018-10-05T23:45:32.406Z,6.50
2018-10-05T23:48:01.765Z,6.57
2018-10-05T23:50:31.137Z,6.60
2018-10-05T23:52:59.497Z,7.53
2018-10-05T23:55:27.837Z,8.53
2018-10-05T23:57:56.182Z,6.77
